首页
METAR-TAF:

METAR-TAF

机场 :

University Park Airport

州学院, 宾夕法尼亚州, 美国

纬度: 40-51N, 经度: 077-51W, 海拔: 378米

当前天气观测

该预报发布于21分钟前的13:53 UTC
风速5节,风向东南
温度 2°C
湿度 80%
气压 1009 hPa
能見度: 8.0公里
散云层高于1900英尺
多云层高于5000英尺
轻雾

METAR: KUNV 151353Z 13005KT 5SM BR SCT019 BKN050 02/M01 A2981

时间: 09:14 (14:14 UTC)

预报

该预报发布于2小时和17分钟前的11:57 UTC
预报有效从15日的 12点(UTC)到 16日的 12点(UTC)
风速7节,风向东转东南,有时为14节阵风
能見度: 10公里
散云层高于1900英尺
阴天层高于25000英尺
短暂存在
从 15日的 12点(UTC)到 15日的 14点(UTC)
能見度: 6.4公里
多云层高于1900英尺
轻雾
从 15日的 1500点(UTC)
风速8节,风向东南,有时为16节阵风
能見度: 10公里
散云层高于4000英尺
多云层高于10000英尺
从 15日的 2300点(UTC)
风速7节,风向南转南东
能見度: 8.0公里
阴天层高于3000英尺
小阵雨, 轻雾
从 16日的 0500点(UTC)
风速8节,风向西,有时为15节阵风
能見度: 6.4公里
阴天层高于1500英尺
小阵雨, 雪, 轻雾
从 16日的 0800点(UTC)
风速8节,风向西,有时为15节阵风
能見度: 8.0公里
多云层高于1500英尺
小阵雪, 轻雾

TAF: KUNV 151157Z 1512/1612 12007G14KT P6SM SCT019 OVC250 WS015/15030KT TEMPO 1512/1514 4SM BR BKN019 FM151500 14008G16KT P6SM SCT040 BKN100 FM152300 15007KT 5SM -SHRA BR OVC030 FM160500 26008G15KT 4SM -SHRASN BR OVC015 FM160800 26008G15KT 5SM -SHSN BR BKN015

超过4000个机场的气象观测和天气预报(METAR&TAF报告)。

可查询的气象台以黄色和红色小点在地图上表示。

将鼠标移到小点上方,可查看气象台名称。

然后点击查看天气观测和预报。

如需切换地图:点击带黑十字的绿色按钮放大地图;点击带横线的绿色按钮缩小地图;或者点击绿色箭头查看邻近地区的地图。


METAR-TAF: